Time;durP1;ratioP1;P1;durP2;ratioP2;P2;SDS_P1;SDS_P2;PMS_P1;PMS_P2;Temp;Humidity;BMP_temperature;BMP_pressure;BME280_temperature;BME280_humidity;BME280_pressure;Samples;Min_cycle;Max_cycle;Signal;HPM_P1;HPM_P2
2023/04/20 00:00:00;;;;;;;4.80;2.60;;;7.40;99.90;;;;;;5072947;28;20619;-61
2023/04/20 00:02:27;;;;;;;6.25;2.50;;;7.40;99.90;;;;;;5092150;28;20688;-61
2023/04/20 00:04:54;;;;;;;5.70;3.03;;;7.30;99.90;;;;;;5091922;28;20048;-62
2023/04/20 00:07:23;;;;;;;8.27;3.15;;;7.30;99.90;;;;;;5092480;28;20051;-62
2023/04/20 00:09:50;;;;;;;6.80;3.90;;;7.20;99.90;;;;;;5092624;28;20048;-61
2023/04/20 00:12:17;;;;;;;7.20;4.53;;;7.30;99.90;;;;;;5071684;28;20510;-61
2023/04/20 00:14:44;;;;;;;6.75;2.88;;;7.20;99.90;;;;;;5091533;28;20127;-61
2023/04/20 00:17:11;;;;;;;8.30;3.55;;;7.20;99.90;;;;;;5074696;28;20047;-62
2023/04/20 00:19:38;;;;;;;8.77;3.60;;;7.20;99.90;;;;;;5091868;28;20051;-61
2023/04/20 00:22:05;;;;;;;7.97;3.20;;;7.30;99.90;;;;;;5092534;28;20044;-62
2023/04/20 00:24:33;;;;;;;8.90;2.75;;;7.20;99.90;;;;;;5074645;28;20093;-62
2023/04/20 00:27:00;;;;;;;4.15;2.53;;;7.40;99.90;;;;;;5091764;28;20043;-62
2023/04/20 00:29:26;;;;;;;4.35;1.92;;;7.30;99.90;;;;;;5092159;28;20488;-61
2023/04/20 00:31:53;;;;;;;8.43;2.53;;;7.40;99.90;;;;;;5074364;28;20056;-61
2023/04/20 00:34:20;;;;;;;7.35;1.95;;;7.40;99.90;;;;;;5071623;28;20048;-62
2023/04/20 00:36:47;;;;;;;6.88;2.38;;;7.40;99.90;;;;;;5092194;28;20052;-61
2023/04/20 00:39:14;;;;;;;7.53;2.53;;;7.50;99.90;;;;;;5072263;28;20055;-61
2023/04/20 00:41:43;;;;;;;4.65;2.38;;;7.50;99.90;;;;;;5091463;28;20044;-61
2023/04/20 00:44:12;;;;;;;9.75;2.17;;;7.50;99.90;;;;;;5074007;28;20048;-61
2023/04/20 00:46:39;;;;;;;7.63;2.20;;;7.60;99.90;;;;;;5091101;28;20043;-61
2023/04/20 00:49:07;;;;;;;4.60;2.03;;;7.70;99.90;;;;;;5092146;28;20051;-61
2023/04/20 00:51:35;;;;;;;4.68;2.13;;;7.80;99.90;;;;;;5090110;28;20557;-61
2023/04/20 00:54:02;;;;;;;7.93;2.15;;;7.90;99.90;;;;;;5091298;28;20478;-62
2023/04/20 00:56:29;;;;;;;7.35;3.05;;;7.90;99.90;;;;;;5074192;28;20052;-62
2023/04/20 00:58:58;;;;;;;4.43;2.13;;;7.90;99.90;;;;;;5091853;28;20450;-61
2023/04/20 01:01:25;;;;;;;5.00;2.10;;;7.90;99.90;;;;;;5073577;28;20400;-62
2023/04/20 01:03:52;;;;;;;8.13;2.67;;;7.90;99.90;;;;;;5091552;28;20499;-61
2023/04/20 01:06:19;;;;;;;7.10;2.75;;;7.90;99.90;;;;;;5073907;28;20085;-63
2023/04/20 01:08:47;;;;;;;7.03;2.80;;;7.80;99.90;;;;;;5073107;28;20043;-61
2023/04/20 01:11:14;;;;;;;5.25;2.50;;;7.80;99.90;;;;;;5091809;28;20044;-61
2023/04/20 01:13:42;;;;;;;5.43;2.58;;;7.80;99.90;;;;;;5091645;28;20109;-61
2023/04/20 01:16:10;;;;;;;3.90;2.00;;;7.80;99.90;;;;;;5073251;28;20552;-61
2023/04/20 01:18:43;;;;;;;4.72;2.60;;;7.80;99.90;;;;;;5073590;28;20048;-61
2023/04/20 01:21:11;;;;;;;3.38;1.80;;;7.90;99.90;;;;;;5073745;28;20080;-61
2023/04/20 01:23:39;;;;;;;4.97;2.00;;;7.90;99.90;;;;;;5072824;28;20051;-61
2023/04/20 01:26:07;;;;;;;5.88;2.63;;;7.90;99.90;;;;;;5075238;28;20055;-62
2023/04/20 01:28:33;;;;;;;7.13;2.50;;;7.90;99.90;;;;;;5075129;28;20094;-61
2023/04/20 01:31:01;;;;;;;8.40;2.10;;;8.00;99.90;;;;;;5076971;28;20098;-62
2023/04/20 01:33:28;;;;;;;8.32;2.55;;;8.00;99.90;;;;;;5093357;28;20048;-62
2023/04/20 01:35:54;;;;;;;5.25;2.40;;;8.00;99.90;;;;;;5094579;28;20127;-61
2023/04/20 01:38:23;;;;;;;4.90;2.80;;;8.10;99.90;;;;;;5074930;28;20048;-61
2023/04/20 01:40:52;;;;;;;9.93;2.83;;;8.00;99.90;;;;;;5077347;28;20477;-61
2023/04/20 01:43:19;;;;;;;5.70;2.42;;;7.90;99.90;;;;;;5076744;28;20059;-62
2023/04/20 01:45:46;;;;;;;11.07;2.40;;;7.80;99.90;;;;;;5077054;28;20047;-61
2023/04/20 01:48:13;;;;;;;5.70;1.90;;;7.70;99.90;;;;;;5077010;28;20453;-61
2023/04/20 01:50:40;;;;;;;9.30;2.38;;;7.60;99.90;;;;;;5076768;28;20101;-62
2023/04/20 01:53:07;;;;;;;8.27;2.00;;;7.40;99.90;;;;;;5076724;28;20153;-62
2023/04/20 01:55:34;;;;;;;6.35;2.40;;;7.30;99.90;;;;;;5094977;28;20097;-61
2023/04/20 01:58:03;;;;;;;7.43;2.40;;;7.20;99.90;;;;;;5094496;28;20127;-61
2023/04/20 02:00:29;;;;;;;6.45;1.90;;;7.10;99.90;;;;;;5076934;28;20055;-62
2023/04/20 02:02:56;;;;;;;8.20;2.30;;;7.00;99.90;;;;;;5094673;28;20407;-61
2023/04/20 02:05:23;;;;;;;5.63;2.15;;;6.90;99.90;;;;;;5094376;28;20055;-61
2023/04/20 02:07:51;;;;;;;4.40;2.47;;;6.80;99.90;;;;;;5074593;28;20080;-62
2023/04/20 02:10:18;;;;;;;7.28;2.30;;;6.70;99.90;;;;;;5094596;28;20476;-62
2023/04/20 02:12:45;;;;;;;4.53;2.35;;;6.70;99.90;;;;;;5094190;28;20044;-62
2023/04/20 02:15:13;;;;;;;3.20;2.00;;;6.70;99.90;;;;;;5094449;28;20044;-62
2023/04/20 02:17:41;;;;;;;5.15;2.20;;;6.60;99.90;;;;;;5076832;28;20040;-61
2023/04/20 02:20:11;;;;;;;5.05;2.05;;;6.60;99.90;;;;;;5075875;28;20052;-61
2023/04/20 02:22:38;;;;;;;6.03;2.25;;;6.60;99.90;;;;;;5076541;28;20059;-61
2023/04/20 02:25:06;;;;;;;6.88;2.65;;;6.60;99.90;;;;;;5094166;28;20055;-62
2023/04/20 02:27:33;;;;;;;5.40;2.40;;;6.60;99.90;;;;;;5094661;28;20383;-61
2023/04/20 02:30:00;;;;;;;9.02;2.42;;;6.60;99.90;;;;;;5094337;28;20055;-62
2023/04/20 02:32:28;;;;;;;5.85;2.38;;;6.60;99.90;;;;;;5075920;28;20063;-61
2023/04/20 02:34:55;;;;;;;5.97;2.17;;;6.60;99.90;;;;;;5076185;28;20109;-61
2023/04/20 02:37:22;;;;;;;7.20;2.50;;;6.70;99.90;;;;;;5093587;28;20123;-61
2023/04/20 02:39:49;;;;;;;5.95;2.67;;;6.70;99.90;;;;;;5075687;28;20055;-61
2023/04/20 02:42:16;;;;;;;8.25;3.03;;;6.70;99.90;;;;;;5073904;28;20044;-61
2023/04/20 02:44:43;;;;;;;9.77;3.15;;;6.80;99.90;;;;;;5094036;28;20048;-62
2023/04/20 02:47:10;;;;;;;7.07;3.15;;;6.90;99.90;;;;;;5075345;28;20518;-61
2023/04/20 02:49:38;;;;;;;10.35;3.13;;;7.00;99.90;;;;;;5075924;28;20501;-63
2023/04/20 02:52:05;;;;;;;7.63;2.95;;;7.00;99.90;;;;;;5093921;28;20055;-61
2023/04/20 02:54:32;;;;;;;6.10;2.92;;;7.10;99.90;;;;;;5075303;28;20047;-61
2023/04/20 02:56:59;;;;;;;5.72;2.75;;;7.10;99.90;;;;;;5075848;28;20063;-61
2023/04/20 02:59:26;;;;;;;10.15;4.35;;;7.20;99.90;;;;;;5075728;28;20044;-62
2023/04/20 03:01:53;;;;;;;7.07;2.60;;;7.20;99.90;;;;;;5092862;28;20048;-62
2023/04/20 03:04:20;;;;;;;7.35;3.22;;;7.30;99.90;;;;;;5075771;28;20048;-61
2023/04/20 03:06:50;;;;;;;10.32;3.47;;;7.40;99.90;;;;;;5093327;28;20505;-62
2023/04/20 03:09:17;;;;;;;7.40;2.72;;;7.50;99.90;;;;;;5092868;28;20040;-61
2023/04/20 03:11:45;;;;;;;8.00;2.70;;;7.50;99.90;;;;;;5075570;28;20514;-61
2023/04/20 03:14:12;;;;;;;6.85;2.13;;;7.70;99.90;;;;;;5075488;28;20048;-61
2023/04/20 03:16:40;;;;;;;7.03;2.40;;;7.80;99.90;;;;;;5092957;28;20093;-62
2023/04/20 03:19:07;;;;;;;7.25;3.03;;;7.90;99.90;;;;;;5093554;28;20044;-62
2023/04/20 03:21:34;;;;;;;6.95;2.88;;;7.90;99.90;;;;;;5072581;28;20055;-62
2023/04/20 03:24:02;;;;;;;7.10;3.00;;;8.00;99.90;;;;;;5075337;28;20040;-62
2023/04/20 03:26:29;;;;;;;8.85;2.50;;;8.10;99.90;;;;;;5091197;28;20051;-62
2023/04/20 03:28:56;;;;;;;3.95;2.22;;;8.00;99.90;;;;;;5092462;28;20537;-62
2023/04/20 03:31:23;;;;;;;9.07;2.50;;;8.10;99.90;;;;;;5093176;28;20113;-61
2023/04/20 03:33:50;;;;;;;8.50;2.58;;;8.10;99.90;;;;;;5092984;28;20503;-61
2023/04/20 03:36:17;;;;;;;8.93;2.40;;;8.20;99.90;;;;;;5092328;28;20168;-61
2023/04/20 03:38:44;;;;;;;11.02;2.45;;;8.20;99.90;;;;;;5093148;28;20051;-61
2023/04/20 03:41:12;;;;;;;6.57;2.80;;;8.20;99.90;;;;;;5092976;28;20051;-61
2023/04/20 03:43:40;;;;;;;5.15;2.45;;;8.20;99.90;;;;;;5090235;28;20044;-60
2023/04/20 03:46:07;;;;;;;3.03;2.00;;;8.30;99.90;;;;;;5090076;28;20048;-62
2023/04/20 03:48:34;;;;;;;6.60;2.47;;;8.30;99.90;;;;;;5092789;28;20048;-61
2023/04/20 03:51:01;;;;;;;3.92;1.90;;;8.30;99.90;;;;;;5065685;28;20059;-62
2023/04/20 03:53:28;;;;;;;3.47;1.92;;;8.30;99.90;;;;;;5088836;28;20105;-61
2023/04/20 03:55:55;;;;;;;5.68;2.08;;;8.30;99.90;;;;;;5089156;28;20054;-61
2023/04/20 03:58:24;;;;;;;5.57;2.10;;;8.30;99.90;;;;;;5088413;28;20119;-61
2023/04/20 04:00:50;;;;;;;5.32;2.45;;;8.30;99.90;;;;;;5070477;28;20151;-61
2023/04/20 04:03:17;;;;;;;6.40;1.88;;;8.30;99.90;;;;;;5089165;28;20053;-61
2023/04/20 04:05:44;;;;;;;6.53;2.42;;;8.40;99.90;;;;;;5088512;28;20055;-62
2023/04/20 04:08:11;;;;;;;7.82;2.85;;;8.40;99.90;;;;;;5070027;28;20044;-61
2023/04/20 04:10:38;;;;;;;11.77;2.75;;;8.40;99.90;;;;;;5090839;28;20040;-61
2023/04/20 04:13:05;;;;;;;6.78;2.38;;;8.30;99.90;;;;;;5070157;28;20048;-61
2023/04/20 04:15:33;;;;;;;6.80;2.60;;;8.40;99.90;;;;;;5091013;28;20055;-62
2023/04/20 04:18:00;;;;;;;5.22;2.28;;;8.40;99.90;;;;;;5070378;28;20048;-62
2023/04/20 04:20:27;;;;;;;7.20;2.22;;;8.30;99.90;;;;;;5086960;28;20040;-61
2023/04/20 04:22:54;;;;;;;4.43;2.15;;;8.30;99.90;;;;;;5087948;28;20195;-62
2023/04/20 04:25:22;;;;;;;5.90;2.30;;;8.30;99.90;;;;;;5087903;28;20048;-61
2023/04/20 04:27:49;;;;;;;5.78;1.98;;;8.20;99.90;;;;;;5089282;28;20043;-62
2023/04/20 04:30:16;;;;;;;5.38;1.98;;;8.20;99.90;;;;;;5088848;28;20048;-62
2023/04/20 04:32:45;;;;;;;5.60;2.33;;;8.20;99.90;;;;;;5084397;28;20098;-62
2023/04/20 04:35:12;;;;;;;4.38;2.13;;;8.10;99.90;;;;;;5088674;28;20134;-60
2023/04/20 04:37:39;;;;;;;4.30;2.20;;;8.10;99.90;;;;;;5088895;28;20105;-61
2023/04/20 04:40:07;;;;;;;2.83;1.60;;;8.10;99.90;;;;;;5089688;28;20047;-61
2023/04/20 04:42:34;;;;;;;3.42;1.73;;;8.00;99.90;;;;;;5089040;28;20052;-61
2023/04/20 04:45:03;;;;;;;3.80;2.05;;;8.10;99.90;;;;;;5072443;28;20126;-61
2023/04/20 04:47:33;;;;;;;3.80;1.92;;;8.10;99.90;;;;;;5089823;28;20055;-61
2023/04/20 04:50:04;;;;;;;4.90;2.08;;;8.00;99.90;;;;;;5087319;28;20054;-62
2023/04/20 04:52:31;;;;;;;;;;;8.00;99.90;;;;;;5090646;28;20105;-61
2023/04/20 04:54:58;;;;;;;8.57;2.25;;;8.00;99.90;;;;;;5070912;28;20300;-60
2023/04/20 04:57:26;;;;;;;7.18;2.08;;;8.00;99.90;;;;;;5073030;28;20047;-61
2023/04/20 04:59:53;;;;;;;6.18;2.20;;;8.00;99.90;;;;;;5082504;28;20053;-61
2023/04/20 05:02:20;;;;;;;3.17;1.83;;;8.10;99.90;;;;;;5075446;28;20048;-62
2023/04/20 05:04:47;;;;;;;4.93;1.77;;;8.10;99.90;;;;;;5092205;28;20098;-61
2023/04/20 05:07:16;;;;;;;5.75;2.30;;;8.10;99.90;;;;;;5094092;28;20048;-61
2023/04/20 05:09:43;;;;;;;4.55;2.00;;;8.10;99.90;;;;;;5075224;28;20507;-62
2023/04/20 05:12:10;;;;;;;5.88;1.98;;;8.10;99.90;;;;;;5076120;28;20442;-62
2023/04/20 05:14:36;;;;;;;4.32;2.00;;;8.10;99.90;;;;;;5095211;28;20121;-61
2023/04/20 05:17:04;;;;;;;4.70;2.10;;;8.10;99.90;;;;;;5076498;28;20048;-62
2023/04/20 05:19:30;;;;;;;5.50;2.38;;;8.10;99.90;;;;;;5077400;28;20051;-61
2023/04/20 05:21:57;;;;;;;7.88;2.10;;;8.10;99.90;;;;;;5077086;28;20048;-62
2023/04/20 05:24:26;;;;;;;6.28;2.30;;;8.00;99.90;;;;;;5077612;28;20532;-60
2023/04/20 05:26:52;;;;;;;7.82;2.20;;;8.00;99.90;;;;;;5077006;28;20040;-61
2023/04/20 05:29:20;;;;;;;6.45;2.60;;;7.90;99.90;;;;;;5094883;28;20093;-61
2023/04/20 05:31:50;;;;;;;4.95;2.20;;;7.80;99.90;;;;;;5077170;28;20058;-61
2023/04/20 05:34:17;;;;;;;5.55;2.13;;;7.60;99.90;;;;;;5095322;28;20488;-61
2023/04/20 05:36:44;;;;;;;7.85;2.40;;;7.50;99.90;;;;;;5074499;28;20048;-61
2023/04/20 05:39:11;;;;;;;4.65;1.90;;;7.50;99.90;;;;;;5095285;28;20042;-61
2023/04/20 05:41:39;;;;;;;5.10;2.33;;;7.40;99.90;;;;;;5077401;28;20048;-61
2023/04/20 05:44:06;;;;;;;5.53;2.40;;;7.40;99.90;;;;;;5094637;28;20113;-61
2023/04/20 05:46:33;;;;;;;7.68;2.90;;;7.40;99.90;;;;;;5076702;28;20051;-61
2023/04/20 05:49:00;;;;;;;5.55;2.45;;;7.40;99.90;;;;;;5077122;28;20093;-62
2023/04/20 05:51:29;;;;;;;5.38;2.40;;;7.40;99.90;;;;;;5094560;28;20051;-61
2023/04/20 05:53:56;;;;;;;5.88;2.10;;;7.40;99.90;;;;;;5076963;28;20129;-61
2023/04/20 05:56:23;;;;;;;6.85;2.08;;;7.50;99.90;;;;;;5094177;28;20548;-61
2023/04/20 05:58:52;;;;;;;6.10;2.22;;;7.50;99.90;;;;;;5092748;28;20119;-61
2023/04/20 06:01:19;;;;;;;5.82;2.30;;;7.60;99.90;;;;;;5076749;28;20048;-61
2023/04/20 06:03:46;;;;;;;6.13;2.47;;;7.60;99.90;;;;;;5094121;28;20063;-60
2023/04/20 06:06:13;;;;;;;8.05;2.22;;;7.60;99.90;;;;;;5094546;28;20085;-61
2023/04/20 06:08:40;;;;;;;5.82;2.67;;;7.60;99.90;;;;;;5094672;28;20487;-61
2023/04/20 06:11:07;;;;;;;6.50;2.47;;;7.60;99.90;;;;;;5094022;28;20097;-61
2023/04/20 06:13:34;;;;;;;7.68;2.08;;;7.60;99.90;;;;;;5093445;28;20047;-61
2023/04/20 06:16:02;;;;;;;5.03;2.75;;;7.70;99.90;;;;;;5076564;28;20056;-62
2023/04/20 06:18:29;;;;;;;8.25;2.15;;;7.70;99.90;;;;;;5093832;28;20044;-62
2023/04/20 06:20:56;;;;;;;5.05;2.25;;;7.60;99.90;;;;;;5092610;28;20090;-61
2023/04/20 06:23:23;;;;;;;4.82;2.30;;;7.60;99.90;;;;;;5094396;28;20044;-62
2023/04/20 06:25:50;;;;;;;8.13;2.83;;;7.50;99.90;;;;;;5075571;28;20509;-62
2023/04/20 06:28:17;;;;;;;7.30;2.10;;;7.50;99.90;;;;;;5094220;28;20065;-61
2023/04/20 06:30:44;;;;;;;5.43;2.30;;;7.40;99.90;;;;;;5094617;28;20044;-62
2023/04/20 06:33:15;;;;;;;8.40;2.85;;;7.30;99.90;;;;;;5093684;28;20043;-62
2023/04/20 06:35:42;;;;;;;6.57;2.70;;;7.20;99.90;;;;;;5094113;28;20048;-62
2023/04/20 06:38:09;;;;;;;5.25;2.20;;;7.10;99.90;;;;;;5076215;28;20484;-62
2023/04/20 06:40:36;;;;;;;5.32;2.67;;;7.00;99.90;;;;;;5075206;28;20044;-61
2023/04/20 06:43:04;;;;;;;4.38;2.15;;;7.00;99.90;;;;;;5094325;28;20446;-62
2023/04/20 06:45:30;;;;;;;6.10;2.80;;;6.80;99.90;;;;;;5075391;28;20460;-61
2023/04/20 06:47:57;;;;;;;7.43;2.60;;;6.70;99.90;;;;;;5076061;28;20101;-63
2023/04/20 06:50:26;;;;;;;6.00;2.30;;;6.60;99.90;;;;;;5091810;28;20098;-63
2023/04/20 06:52:53;;;;;;;6.80;2.47;;;6.50;99.90;;;;;;5093346;28;20044;-63
2023/04/20 06:55:19;;;;;;;6.20;2.72;;;6.50;99.90;;;;;;5093695;28;20052;-61
2023/04/20 06:57:46;;;;;;;7.78;2.70;;;6.50;99.90;;;;;;5075707;28;20056;-61
2023/04/20 07:00:14;;;;;;;5.63;2.90;;;6.50;99.90;;;;;;5093267;28;20044;-61
2023/04/20 07:02:46;;;;;;;7.07;3.13;;;6.50;99.90;;;;;;5075637;28;20052;-62
2023/04/20 07:05:13;;;;;;;4.85;2.85;;;6.60;99.90;;;;;;5093463;28;20053;-61
2023/04/20 07:07:41;;;;;;;4.93;2.50;;;6.60;99.90;;;;;;5075089;28;20140;-60
2023/04/20 07:10:09;;;;;;;7.28;2.97;;;6.60;99.90;;;;;;5075348;28;20048;-61
2023/04/20 07:12:37;;;;;;;6.75;2.97;;;6.60;99.90;;;;;;5093569;28;20573;-61
2023/04/20 07:15:05;;;;;;;6.43;3.28;;;6.60;99.90;;;;;;5074939;28;20063;-61
2023/04/20 07:17:32;;;;;;;6.38;3.00;;;6.60;99.90;;;;;;5093200;28;20044;-62
2023/04/20 07:20:06;;;;;;;8.52;3.40;;;6.60;99.90;;;;;;5093398;28;20435;-61
2023/04/20 07:22:33;;;;;;;7.30;3.08;;;6.60;99.90;;;;;;5074943;28;20056;-62
2023/04/20 07:25:02;;;;;;;5.35;3.00;;;6.60;99.90;;;;;;5093200;28;20052;-61
2023/04/20 07:27:29;;;;;;;5.47;2.83;;;6.80;99.90;;;;;;5075109;28;20468;-61
2023/04/20 07:29:58;;;;;;;9.10;3.05;;;6.80;99.90;;;;;;5074264;28;20036;-62
2023/04/20 07:32:25;;;;;;;6.57;2.70;;;6.80;99.90;;;;;;5093012;28;20172;-61
2023/04/20 07:34:51;;;;;;;5.00;2.53;;;6.80;99.90;;;;;;5074365;28;20048;-61
2023/04/20 07:37:19;;;;;;;4.80;2.78;;;6.90;99.90;;;;;;5092786;28;20476;-61
2023/04/20 07:39:45;;;;;;;6.32;3.30;;;6.90;99.90;;;;;;5093161;28;20071;-62
2023/04/20 07:42:14;;;;;;;7.53;3.30;;;7.00;99.90;;;;;;5092434;28;20048;-61
2023/04/20 07:44:40;;;;;;;7.45;2.75;;;7.10;99.90;;;;;;5074748;28;20499;-61
2023/04/20 07:47:07;;;;;;;7.70;2.92;;;7.20;99.90;;;;;;5074691;28;20052;-62
2023/04/20 07:49:37;;;;;;;5.20;3.00;;;7.10;99.90;;;;;;5074230;28;20116;-61
2023/04/20 07:52:04;;;;;;;5.72;2.80;;;7.20;99.90;;;;;;5074818;28;20075;-62
2023/04/20 07:54:31;;;;;;;5.68;2.95;;;7.20;99.90;;;;;;5074742;28;20564;-61
2023/04/20 07:56:58;;;;;;;3.80;2.60;;;7.20;99.90;;;;;;5074241;28;20487;-61
2023/04/20 07:59:27;;;;;;;9.90;3.00;;;7.20;99.90;;;;;;5074456;28;20043;-62
2023/04/20 08:01:58;;;;;;;5.55;3.10;;;7.20;99.90;;;;;;5092323;28;20449;-61
2023/04/20 08:04:25;;;;;;;6.03;3.33;;;7.10;99.90;;;;;;5074198;28;20044;-62
2023/04/20 08:06:52;;;;;;;10.48;3.15;;;7.00;99.90;;;;;;5090355;28;20043;-61
2023/04/20 08:09:19;;;;;;;9.05;3.35;;;7.00;99.90;;;;;;5092206;28;20491;-61
2023/04/20 08:11:46;;;;;;;5.32;2.92;;;7.00;99.90;;;;;;5091980;28;20469;-62
2023/04/20 08:14:14;;;;;;;5.93;3.05;;;7.10;99.90;;;;;;5074481;28;20048;-61
2023/04/20 08:16:42;;;;;;;5.55;3.05;;;7.10;99.90;;;;;;5092233;28;20105;-62
2023/04/20 08:19:09;;;;;;;6.18;3.22;;;7.10;99.90;;;;;;5091703;28;20073;-61
2023/04/20 08:21:37;;;;;;;4.22;2.63;;;7.20;99.90;;;;;;5074308;28;20143;-61
2023/04/20 08:24:04;;;;;;;3.90;2.90;;;7.20;99.90;;;;;;5091866;28;20048;-61
2023/04/20 08:26:31;;;;;;;6.18;3.42;;;7.30;99.90;;;;;;5092091;28;20450;-61
2023/04/20 08:28:59;;;;;;;8.15;2.92;;;7.40;99.90;;;;;;5090028;28;20048;-61
2023/04/20 08:31:26;;;;;;;7.47;2.85;;;7.30;99.90;;;;;;5091593;28;20077;-61
2023/04/20 08:33:54;;;;;;;5.35;2.72;;;7.30;99.90;;;;;;5074390;28;20450;-61
2023/04/20 08:36:21;;;;;;;5.60;2.83;;;7.30;99.90;;;;;;5073557;28;20044;-61
2023/04/20 08:39:06;;;;;;;5.38;3.00;;;7.20;99.90;;;;;;5073631;28;20044;-62
2023/04/20 08:41:33;;;;;;;6.75;2.97;;;7.20;99.90;;;;;;5074254;28;20457;-61
2023/04/20 08:44:00;;;;;;;5.80;3.00;;;7.10;99.90;;;;;;5074239;28;20056;-62
2023/04/20 08:46:27;;;;;;;5.95;3.28;;;7.00;99.90;;;;;;5089008;28;20447;-61
2023/04/20 08:48:56;;;;;;;6.28;3.35;;;7.10;99.90;;;;;;5091915;28;20480;-61
2023/04/20 08:51:23;;;;;;;8.48;3.33;;;7.10;99.90;;;;;;5073943;28;20040;-61
2023/04/20 08:53:50;;;;;;;5.40;3.33;;;7.10;99.90;;;;;;5073234;28;20055;-62
2023/04/20 08:56:17;;;;;;;8.15;3.50;;;7.30;99.90;;;;;;5073955;28;20052;-61
2023/04/20 08:58:44;;;;;;;7.97;3.15;;;7.40;99.90;;;;;;5073876;28;20428;-61
2023/04/20 09:01:11;;;;;;;4.93;3.10;;;7.50;99.90;;;;;;5091477;28;20048;-60
2023/04/20 09:03:40;;;;;;;7.60;3.60;;;7.60;99.90;;;;;;5089774;28;20465;-61
2023/04/20 09:06:16;;;;;;;5.25;3.25;;;7.70;99.90;;;;;;5091188;28;20413;-61
2023/04/20 09:08:44;;;;;;;5.05;3.08;;;7.90;99.90;;;;;;5092044;28;20052;-61
2023/04/20 09:11:22;;;;;;;6.55;3.25;;;8.10;99.90;;;;;;5092131;28;20040;-62
2023/04/20 09:13:59;;;;;;;7.35;3.85;;;8.10;99.90;;;;;;5090465;28;20506;-61
2023/04/20 09:16:26;;;;;;;8.93;3.60;;;8.20;99.90;;;;;;5073766;28;20060;-62
2023/04/20 09:18:55;;;;;;;6.93;3.70;;;8.30;99.90;;;;;;5091698;28;20044;-62
2023/04/20 09:21:24;;;;;;;9.23;4.13;;;8.30;99.90;;;;;;5071150;28;20392;-61
2023/04/20 09:23:59;;;;;;;9.52;3.53;;;8.20;99.90;;;;;;5091626;28;20071;-62
2023/04/20 09:26:26;;;;;;;9.40;3.63;;;8.30;99.90;;;;;;5091584;28;20044;-62
2023/04/20 09:28:53;;;;;;;6.05;3.60;;;8.30;99.90;;;;;;5091167;28;20047;-61
2023/04/20 09:31:21;;;;;;;7.25;3.58;;;8.20;99.90;;;;;;5073497;28;20052;-61
2023/04/20 09:33:59;;;;;;;6.63;3.53;;;8.30;99.90;;;;;;5091783;28;20048;-62
2023/04/20 09:36:37;;;;;;;8.52;3.60;;;8.40;99.90;;;;;;5091132;28;20052;-61
2023/04/20 09:39:08;;;;;;;7.55;3.78;;;8.50;99.90;;;;;;5091635;28;20083;-62
2023/04/20 09:41:36;;;;;;;6.38;3.55;;;8.50;99.90;;;;;;5090986;28;20044;-62
2023/04/20 09:44:04;;;;;;;9.13;3.55;;;8.50;99.90;;;;;;5091457;28;20044;-61
2023/04/20 09:46:33;;;;;;;10.18;3.97;;;8.60;99.90;;;;;;5092218;28;20131;-62
2023/04/20 09:49:01;;;;;;;6.88;3.85;;;8.90;99.90;;;;;;5094428;28;20568;-62
2023/04/20 09:51:28;;;;;;;9.07;3.67;;;9.30;99.90;;;;;;5095228;28;20074;-61
2023/04/20 09:53:58;;;;;;;9.40;4.20;;;9.50;99.90;;;;;;5095070;28;20052;-61
2023/04/20 09:56:26;;;;;;;5.68;3.70;;;9.60;99.90;;;;;;5076209;28;20048;-61
2023/04/20 09:58:54;;;;;;;6.68;3.70;;;9.60;99.90;;;;;;5093059;28;20047;-62
2023/04/20 10:01:22;;;;;;;6.00;3.60;;;9.60;99.90;;;;;;5094860;28;20048;-62
2023/04/20 10:03:49;;;;;;;10.05;4.15;;;9.60;99.90;;;;;;5076024;28;20143;-61
2023/04/20 10:06:23;;;;;;;6.40;4.30;;;9.50;99.90;;;;;;5094616;28;20097;-62
2023/04/20 10:08:51;;;;;;;7.93;3.45;;;9.40;99.90;;;;;;5094635;28;20040;-61
2023/04/20 10:11:27;;;;;;;6.07;3.90;;;9.60;99.90;;;;;;5094134;28;20056;-61
2023/04/20 10:13:55;;;;;;;7.38;3.90;;;9.70;99.90;;;;;;5094587;28;20051;-62
2023/04/20 10:16:22;;;;;;;9.10;3.97;;;9.60;99.90;;;;;;5076325;28;20157;-61
2023/04/20 10:18:59;;;;;;;4.68;3.28;;;9.60;99.90;;;;;;5076041;28;20051;-61
2023/04/20 10:21:26;;;;;;;7.53;3.88;;;9.40;99.90;;;;;;5094308;28;20127;-62
2023/04/20 10:23:54;;;;;;;8.05;3.67;;;9.40;99.90;;;;;;5094074;28;20050;-61
2023/04/20 10:26:21;;;;;;;8.32;3.60;;;9.30;99.90;;;;;;5092226;28;20551;-61
2023/04/20 10:28:49;;;;;;;5.72;3.70;;;9.30;99.90;;;;;;5076146;28;20089;-62
2023/04/20 10:31:16;;;;;;;8.02;3.70;;;9.20;99.90;;;;;;5073846;28;20110;-61
2023/04/20 10:33:51;;;;;;;6.50;4.03;;;9.20;99.90;;;;;;5094331;28;20052;-61
2023/04/20 10:36:27;;;;;;;8.35;3.85;;;9.10;99.90;;;;;;5094162;28;20132;-61
2023/04/20 10:38:54;;;;;;;5.97;3.85;;;9.00;99.90;;;;;;5075420;28;20051;-61
2023/04/20 10:41:22;;;;;;;6.35;3.47;;;8.80;99.90;;;;;;5094242;28;20119;-62
2023/04/20 10:43:50;;;;;;;7.22;4.13;;;8.80;99.90;;;;;;5076124;28;20135;-61
2023/04/20 10:46:18;;;;;;;8.70;4.30;;;8.70;99.90;;;;;;5075279;28;20547;-61
2023/04/20 10:48:52;;;;;;;7.28;4.15;;;8.70;99.90;;;;;;5092045;28;20040;-62
2023/04/20 10:51:20;;;;;;;7.05;4.38;;;8.60;99.90;;;;;;5092075;28;20044;-63
2023/04/20 10:53:58;;;;;;;6.50;4.20;;;8.50;99.90;;;;;;5075340;28;20548;-61
2023/04/20 10:56:25;;;;;;;7.75;4.22;;;8.50;99.90;;;;;;5093609;28;20492;-61
2023/04/20 10:58:54;;;;;;;7.15;4.13;;;8.60;99.90;;;;;;5092744;28;20093;-62
2023/04/20 11:01:21;;;;;;;9.35;4.63;;;8.60;99.90;;;;;;5073944;28;20510;-63
2023/04/20 11:03:50;;;;;;;6.80;3.80;;;8.70;99.90;;;;;;5057812;28;20181;-62
2023/04/20 11:06:17;;;;;;;6.87;4.63;;;8.70;99.90;;;;;;5054790;28;20080;-62
2023/04/20 11:08:45;;;;;;;8.20;4.85;;;8.90;99.90;;;;;;5073421;28;20484;-61
2023/04/20 11:11:19;;;;;;;7.75;4.53;;;8.80;99.90;;;;;;5055482;28;20385;-61
2023/04/20 11:13:48;;;;;;;6.93;4.55;;;8.90;99.90;;;;;;5054806;28;20056;-62
2023/04/20 11:16:18;;;;;;;8.82;4.88;;;9.00;99.90;;;;;;5073187;28;20155;-61
2023/04/20 11:18:53;;;;;;;9.30;4.97;;;8.90;99.90;;;;;;5073268;28;20090;-61
2023/04/20 11:21:21;;;;;;;8.32;5.20;;;8.70;99.90;;;;;;5072309;28;20131;-61
2023/04/20 11:23:49;;;;;;;7.60;4.45;;;8.70;99.90;;;;;;5055482;28;20052;-62
2023/04/20 11:26:16;;;;;;;6.95;4.18;;;8.80;99.90;;;;;;5052957;28;20045;-61
2023/04/20 11:28:53;;;;;;;8.65;4.63;;;8.90;99.90;;;;;;5054763;28;20059;-61
2023/04/20 11:31:22;;;;;;;7.63;4.57;;;9.10;99.90;;;;;;5072792;28;20102;-61
2023/04/20 11:33:48;;;;;;;12.35;5.45;;;9.20;99.90;;;;;;5054612;28;20076;-61
2023/04/20 11:36:20;;;;;;;6.80;4.63;;;9.20;99.90;;;;;;5072575;28;20048;-62
2023/04/20 11:38:47;;;;;;;7.80;4.85;;;9.30;99.90;;;;;;5055195;28;20902;-61
2023/04/20 11:41:14;;;;;;;6.57;4.38;;;9.30;99.90;;;;;;5072094;28;20538;-62
2023/04/20 11:43:42;;;;;;;7.00;4.80;;;9.20;99.90;;;;;;5072790;28;20052;-62
2023/04/20 11:46:16;;;;;;;9.23;4.88;;;9.10;99.90;;;;;;5072509;28;20067;-62
2023/04/20 11:48:45;;;;;;;9.35;4.80;;;9.10;99.90;;;;;;5070127;28;20047;-61
2023/04/20 11:51:12;;;;;;;11.10;5.25;;;9.10;99.90;;;;;;5054674;28;20106;-61
2023/04/20 11:53:39;;;;;;;8.93;4.88;;;9.00;99.90;;;;;;5072783;28;20048;-61
2023/04/20 11:56:07;;;;;;;8.13;5.22;;;9.00;99.90;;;;;;5054165;28;20060;-61
2023/04/20 11:58:34;;;;;;;10.07;5.97;;;9.00;99.90;;;;;;5054890;28;20147;-62
2023/04/20 12:01:01;;;;;;;9.85;5.10;;;9.00;99.90;;;;;;5072387;28;20041;-61
2023/04/20 12:03:28;;;;;;;6.93;5.15;;;9.50;99.90;;;;;;5086707;28;20059;-62
2023/04/20 12:05:56;;;;;;;9.48;5.80;;;10.20;99.90;;;;;;5092598;28;20055;-62
2023/04/20 12:08:23;;;;;;;9.88;6.03;;;11.20;99.90;;;;;;5092740;28;20089;-61
2023/04/20 12:10:50;;;;;;;10.57;6.22;;;12.40;99.90;;;;;;5070837;28;20123;-60
2023/04/20 12:13:17;;;;;;;7.63;5.18;;;12.20;99.90;;;;;;5092518;28;20047;-61
2023/04/20 12:15:44;;;;;;;10.00;5.70;;;12.70;99.90;;;;;;5092183;28;20051;-62
2023/04/20 12:18:11;;;;;;;10.32;5.85;;;13.20;99.90;;;;;;5073681;28;20055;-62
2023/04/20 12:20:38;;;;;;;10.70;5.47;;;13.50;99.90;;;;;;5074095;28;20056;-62
2023/04/20 12:23:06;;;;;;;6.60;5.47;;;13.00;99.90;;;;;;5073595;28;20048;-63
2023/04/20 12:25:33;;;;;;;8.23;5.50;;;12.50;99.90;;;;;;5073875;28;20060;-61
2023/04/20 12:28:04;;;;;;;11.00;6.32;;;12.00;99.90;;;;;;5092445;28;20048;-62
2023/04/20 12:30:31;;;;;;;8.27;5.45;;;12.10;99.90;;;;;;5091265;28;20040;-61
2023/04/20 12:32:58;;;;;;;10.07;6.20;;;11.90;99.90;;;;;;5092553;28;20047;-61
2023/04/20 12:35:25;;;;;;;9.30;6.00;;;11.90;99.90;;;;;;5092255;28;20454;-61
2023/04/20 12:37:52;;;;;;;7.47;5.68;;;11.80;99.90;;;;;;5073636;28;20071;-62
2023/04/20 12:40:20;;;;;;;7.82;5.90;;;11.80;99.90;;;;;;5071916;28;20491;-63
2023/04/20 12:42:47;;;;;;;9.07;6.28;;;11.90;99.90;;;;;;5073843;28;20063;-62
2023/04/20 12:45:14;;;;;;;9.57;5.97;;;11.90;99.90;;;;;;5091449;28;20093;-62
2023/04/20 12:47:41;;;;;;;8.85;5.90;;;12.00;99.90;;;;;;5073597;28;20093;-62
2023/04/20 12:50:09;;;;;;;6.88;5.20;;;12.50;99.90;;;;;;5092205;28;20098;-62
2023/04/20 12:52:36;;;;;;;7.40;5.90;;;13.00;99.90;;;;;;5091249;28;20044;-61
2023/04/20 12:55:03;;;;;;;6.10;4.97;;;13.40;99.90;;;;;;5074122;28;20443;-62
2023/04/20 12:57:31;;;;;;;7.40;5.47;;;13.60;99.90;;;;;;5089744;28;20044;-62